Date,TemperatureHighF,TemperatureAvgF,TemperatureLowF,DewpointHighF,DewpointAvgF,DewpointLowF,HumidityHigh,HumidityAvg,HumidityLow,PressureMaxIn,PressureMinIn,WindSpeedMaxMPH,WindSpeedAvgMPH,GustSpeedMaxMPH,PrecipitationSumIn
2013-1-1,24,22,20,-12,-98,-100,22,1,22,0.00,40.00,2,0,6,0.00
2013-1-2,22,20,19,-100,-100,-100,0,0,100,0.00,40.00,2,0,6,0.00
2013-1-3,32,20,18,32,-97,-100,100,2,100,0.00,40.00,1,0,3,0.00
2013-1-4,26,22,19,-100,-100,-100,0,0,100,0.00,40.00,2,0,6,0.00
2013-1-5,25,22,20,-100,-100,-100,0,0,100,0.00,40.00,1,0,2,0.00
2013-1-6,30,24,18,-100,-100,-100,0,0,100,0.00,40.00,3,1,7,0.00
2013-1-7,32,28,23,-100,-100,-100,0,0,100,0.00,40.00,3,1,14,0.00
2013-1-8,32,31,31,-100,-100,-100,0,0,100,0.00,40.00,3,0,14,0.00
2013-1-9,32,31,29,-100,-100,-100,0,0,100,0.00,40.00,2,0,9,0.00
2013-1-10,33,26,21,-100,-100,-100,0,0,100,0.00,40.00,3,1,13,0.00
2013-1-11,22,17,10,-100,-100,-100,0,0,100,0.00,40.00,0,0,2,0.00
2013-1-12,20,11,7,-31,-98,-100,8,0,8,0.00,40.00,1,0,2,0.00
2013-1-13,23,12,2,-100,-100,-100,0,0,100,0.00,40.00,1,0,5,0.00
2013-1-14,36,22,18,31,-96,-100,92,3,92,0.00,40.00,12,2,25,0.00
2013-1-15,28,17,13,-100,-100,-100,0,0,100,0.00,40.00,5,1,9,0.00
2013-1-16,22,19,15,-100,-100,-100,0,0,100,0.00,40.00,2,1,7,0.00
2013-1-17,25,20,18,-100,-100,-100,0,0,100,0.00,40.00,3,1,7,0.00
2013-1-18,23,18,14,-100,-100,-100,0,0,100,0.00,40.00,2,1,5,0.00
2013-1-19,22,15,9,-100,-100,-100,0,0,100,0.00,40.00,1,0,5,0.00
2013-1-20,27,16,8,-100,-100,-100,0,0,100,0.00,40.00,2,0,7,0.00
2013-1-21,21,17,13,-100,-100,-100,0,0,100,0.00,40.00,3,1,8,0.00
2013-1-22,22,17,12,-100,-100,-100,0,0,100,0.00,40.00,1,0,3,0.00
2013-1-23,26,22,17,-100,-100,-100,0,0,100,0.00,40.00,1,0,2,0.00
2013-1-24,24,20,14,-100,-100,-100,0,0,100,0.00,40.00,3,1,7,0.00
2013-1-25,32,25,21,-100,-100,-100,0,0,100,0.00,40.00,2,0,6,0.00
2013-1-26,32,28,26,-100,-100,-100,0,0,100,0.00,40.00,2,1,6,0.00
2013-1-27,33,26,17,-100,-100,-100,0,0,100,0.00,40.00,3,1,8,0.00
2013-1-28,35,28,22,-100,-100,-100,0,0,100,0.00,40.00,6,1,17,0.00
2013-1-29,42,37,34,37,-18,-100,96,51,67,0.00,40.00,8,6,22,0.00
2013-1-31,46,38,33,38,-36,-100,100,35,60,0.00,40.00,3,2,12,0.00
2013-2-1,44,33,28,38,-70,-100,100,19,75,0.00,40.00,1,0,12,0.00
2013-2-2,39,29,23,38,-81,-100,100,13,85,0.00,40.00,1,0,6,0.00
2013-2-3,45,31,23,32,-40,-100,100,36,59,0.00,40.00,6,1,17,0.00
2013-2-4,43,34,29,39,-70,-100,100,21,70,0.00,40.00,1,0,3,0.00
2013-2-5,41,34,30,39,-89,-100,100,8,100,0.00,40.00,2,0,6,0.00
2013-2-6,40,34,31,-100,-100,-100,0,0,100,0.00,40.00,3,0,7,0.00
2013-2-7,41,32,26,40,-48,-100,100,33,48,0.00,40.00,6,1,13,0.00
2013-2-8,40,28,20,28,-35,-100,100,38,50,0.00,40.00,5,1,14,0.00
2013-2-9,41,31,25,32,23,-100,100,81,57,0.00,40.00,7,2,17,0.00
2013-2-10,43,29,22,31,-27,-100,100,48,55,0.00,40.00,2,0,6,0.00
2013-2-11,45,33,23,42,-26,-100,100,40,55,0.00,40.00,6,2,15,0.00
2013-2-12,46,41,38,34,30,24,72,63,49,0.00,40.00,9,5,23,0.00
2013-2-13,44,41,35,34,29,26,75,62,48,0.00,40.00,12,6,24,0.00
2013-2-14,47,38,31,32,29,27,92,72,51,0.00,40.00,6,2,17,0.00
2013-2-15,47,33,26,38,-25,-100,100,50,60,0.00,40.00,2,0,7,0.00
2013-2-16,45,32,26,33,-72,-100,100,16,48,0.00,40.00,6,1,16,0.00
2013-2-17,43,33,27,32,-34,-100,88,36,42,0.00,40.00,5,1,9,0.00
2013-2-18,38,29,24,30,3,-100,100,68,61,0.00,40.00,1,0,5,0.00
2013-2-19,42,31,26,28,14,-100,100,74,44,0.00,40.00,3,0,7,0.00
2013-2-20,40,28,20,33,9,-100,100,73,48,0.00,40.00,6,1,12,0.00
2013-2-21,40,31,24,34,-13,-100,100,60,57,0.00,40.00,3,1,12,0.00
2013-2-22,33,30,28,-100,-100,-100,0,0,100,0.00,40.00,2,0,9,0.00
2013-2-23,37,31,28,37,-44,-100,100,38,75,0.00,40.00,7,3,18,0.00
2013-2-24,42,34,30,29,28,26,88,77,57,0.00,40.00,5,1,15,0.00
2013-2-25,39,33,29,35,1,-100,100,63,61,0.00,40.00,7,3,20,0.00
2013-2-26,42,35,31,29,24,20,81,63,41,0.00,40.00,6,2,15,0.00
2013-2-27,45,36,29,33,26,-100,100,76,44,0.00,40.00,2,1,9,0.00
2013-2-28,33,32,32,32,-54,-100,100,34,88,0.00,40.00,2,0,5,0.00
2013-3-1,54,39,32,41,-43,-100,96,32,54,0.00,40.00,7,2,21,0.00
2013-3-2,54,38,30,47,-8,-100,100,54,46,0.00,40.00,6,2,15,0.00
2013-3-3,42,34,28,30,23,17,100,66,38,0.00,40.00,6,3,18,0.00
2013-3-4,41,30,21,24,22,19,95,72,40,0.00,40.00,2,1,6,0.00
2013-3-5,40,31,26,30,24,20,96,78,44,0.00,40.00,2,0,6,0.00
2013-3-6,36,32,30,30,-71,-100,100,22,96,0.00,40.00,2,1,5,0.00
2013-3-7,44,34,29,36,-54,-100,100,30,67,0.00,40.00,2,0,5,0.00
2013-3-8,49,34,26,37,-3,-100,100,60,43,0.00,40.00,2,0,6,0.00
2013-3-9,53,36,23,33,22,-100,100,69,21,0.00,40.00,7,2,16,0.00
2013-3-10,49,41,31,31,29,26,88,65,47,0.00,40.00,7,3,18,0.00
2013-3-11,49,38,26,33,27,18,100,69,28,0.00,40.00,3,1,9,0.00
2013-3-12,50,40,31,42,12,-100,100,68,63,0.00,40.00,6,1,16,0.00
2013-3-13,56,47,38,42,40,38,100,80,57,0.00,40.00,5,2,12,0.00
2013-3-14,57,46,36,38,-9,-100,70,37,35,0.00,40.00,7,3,18,0.00
2013-3-15,54,45,38,46,34,-100,100,73,48,0.00,40.00,5,2,15,0.00
2013-3-16,47,37,30,44,13,-100,100,74,60,0.00,40.00,5,2,17,0.00
2013-3-17,40,32,28,32,20,-100,100,78,50,0.00,40.00,7,3,17,0.00
2013-3-18,40,32,27,32,27,24,100,80,54,0.00,40.00,7,2,22,0.00
2013-3-19,42,32,24,30,24,20,100,75,41,0.00,40.00,3,1,10,0.00
2013-3-20,39,33,30,39,33,29,100,100,100,0.00,40.00,6,0,14,0.00
2013-3-21,41,32,28,30,25,16,96,77,37,0.00,40.00,9,3,18,0.00
2013-3-22,40,30,24,26,22,14,92,72,36,0.00,40.00,7,2,15,0.00
2013-3-23,42,31,23,24,20,14,84,66,31,0.00,40.00,3,1,8,0.00
2013-3-24,27,23,21,23,21,20,95,90,84,0.00,40.00,1,0,2,0.00
2013-3-25,50,38,25,26,22,13,91,55,25,0.00,40.00,3,1,10,0.00
2013-3-26,56,34,24,29,25,23,95,73,29,0.00,40.00,2,1,6,0.00
2013-3-27,55,46,31,37,33,29,92,63,41,0.00,40.00,2,1,10,0.00
2013-3-28,56,42,28,40,34,28,100,76,39,0.00,40.00,3,1,12,0.00
2013-3-29,39,33,28,35,31,28,100,94,85,0.00,40.00,1,1,3,0.00
2013-3-30,63,48,28,39,30,-100,100,64,32,0.00,40.00,2,1,5,0.00
2013-3-31,67,42,29,40,33,29,100,77,26,0.00,40.00,3,1,7,0.00
2013-4-1,30,30,30,30,30,30,100,100,100,0.00,40.00,0,0,1,0.00
2013-4-2,42,42,42,36,36,36,79,79,79,0.00,40.00,2,2,5,0.00
2013-4-3,65,54,40,39,35,29,85,51,26,0.00,40.00,6,2,12,0.00
2013-4-4,46,43,41,45,40,37,100,88,76,0.00,40.00,1,1,5,0.00
2013-4-5,49,43,40,46,-52,-100,100,31,82,0.00,40.00,3,1,7,0.00
2013-4-6,41,40,38,-100,-100,-100,0,0,100,0.00,40.00,1,0,2,0.00
2013-4-8,54,45,34,34,32,29,96,63,40,0.00,40.00,7,3,15,0.00
2013-4-9,56,41,28,37,32,28,100,76,36,0.00,40.00,3,1,9,0.00
2013-4-10,51,45,40,46,39,33,100,81,51,0.00,40.00,9,4,24,0.00
2013-4-11,50,42,33,35,30,23,92,65,34,0.00,40.00,7,3,22,0.00
2013-4-12,50,36,29,36,31,24,100,84,35,0.00,40.00,3,1,10,0.00
2013-4-13,38,33,30,34,31,29,100,92,69,0.00,40.00,9,3,17,0.00
2013-4-15,39,36,33,37,34,31,100,93,82,0.00,40.00,1,1,7,0.00
2013-4-16,47,40,32,34,27,19,100,64,33,0.00,40.00,3,1,6,0.00
2013-4-17,52,38,26,33,27,24,100,71,35,0.00,40.00,7,2,17,0.00
2013-4-18,55,45,39,36,34,31,82,64,48,0.00,40.00,8,3,18,0.00
2013-4-19,55,49,37,38,38,37,100,67,50,0.00,40.00,7,4,17,0.00
2013-4-20,55,46,40,37,35,31,85,65,43,0.00,40.00,7,5,22,0.00
2013-4-21,52,44,36,33,30,28,85,60,40,0.00,40.00,10,4,22,0.00
2013-4-22,57,39,26,32,24,10,100,67,15,0.00,40.00,3,2,6,0.00
2013-4-23,58,43,28,32,27,20,92,60,22,0.00,40.00,3,1,9,0.00
2013-4-24,60,38,28,34,29,26,96,75,27,0.00,40.00,2,1,7,0.00
2013-4-25,67,57,40,36,33,31,69,43,28,0.00,40.00,6,4,15,0.00
2013-4-26,72,61,43,43,32,25,82,40,17,0.00,40.00,6,3,15,0.00
2013-4-27,59,52,48,38,34,24,68,51,26,0.00,40.00,10,6,28,0.00
2013-4-28,55,47,41,38,35,30,85,63,39,0.00,40.00,10,5,24,0.00
2013-4-29,42,38,36,37,33,21,100,83,42,0.00,40.00,7,3,22,0.00
2013-4-30,49,42,33,26,22,17,75,46,27,0.00,40.00,6,3,18,0.00
2013-5-1,57,35,26,29,24,15,92,71,18,0.00,40.00,2,0,6,0.00
2013-5-2,69,56,31,36,30,22,96,43,16,0.00,40.00,3,2,12,0.00
2013-5-3,73,58,37,42,35,27,88,48,17,0.00,40.00,5,2,10,0.00
2013-5-4,71,49,35,42,35,24,96,69,16,0.00,40.00,3,1,13,0.00
2013-5-5,78,60,36,44,34,22,96,45,12,0.00,40.00,3,1,9,0.00
2013-5-6,82,65,38,43,33,20,85,39,10,0.00,40.00,3,2,10,0.00
2013-5-7,84,62,43,48,40,33,85,51,16,0.00,40.00,5,2,12,0.00
2013-5-8,83,63,46,49,45,38,92,58,21,0.00,40.00,6,2,14,0.00
2013-5-9,85,61,43,47,40,26,96,58,12,0.00,40.00,8,1,18,0.00
2013-5-10,85,55,32,48,38,-100,100,65,11,0.00,40.00,2,-30,9,0.00
2013-5-11,80,57,50,46,44,39,79,62,23,0.00,40.00,2,1,5,0.00
2013-5-12,69,63,53,51,46,43,83,55,38,0.00,40.00,10,5,21,0.00
2013-5-13,59,52,40,49,46,40,100,81,55,0.00,40.00,3,2,15,0.00
2013-5-14,58,46,35,49,18,-100,100,62,34,0.00,40.00,8,2,17,0.00
2013-5-15,64,47,34,41,35,29,100,70,28,0.00,40.00,3,1,6,0.00
2013-5-16,67,53,42,47,26,-100,100,66,40,0.00,40.00,5,2,10,0.00
2013-5-17,62,51,44,47,13,-100,100,59,53,0.00,40.00,5,2,14,0.00
2013-5-18,60,52,45,41,37,34,82,59,37,0.00,40.00,7,3,22,0.00
2013-5-19,64,52,39,44,38,35,100,63,36,0.00,40.00,7,3,21,0.00
2013-5-20,73,58,38,50,24,-100,96,45,23,0.00,40.00,3,1,14,0.00
2013-5-21,52,46,40,48,-14,-100,100,48,50,0.00,40.00,7,2,17,0.00
2013-5-22,48,42,38,48,-20,-100,100,53,79,0.00,40.00,2,1,10,0.00
2013-5-23,52,44,38,47,-57,-100,100,27,82,0.00,40.00,1,1,3,0.00
2013-5-24,59,45,38,53,-28,-100,100,39,51,0.00,40.00,3,1,7,0.00
2013-5-25,59,46,35,49,40,33,100,83,41,0.00,40.00,2,1,7,0.00
2013-5-26,60,47,32,49,43,32,100,88,55,0.00,40.00,5,1,12,0.00
2013-5-27,52,41,36,45,40,36,100,96,76,0.00,40.00,2,0,5,0.00
2013-5-28,63,54,44,50,43,40,100,68,44,0.00,40.00,5,2,13,0.00
2013-5-29,57,47,40,49,42,39,100,84,57,0.00,40.00,6,1,17,0.00
2013-5-30,59,47,36,40,36,32,100,69,37,0.00,40.00,9,3,18,0.00
2013-5-31,67,49,39,39,36,32,92,67,28,0.00,40.00,3,2,12,0.00
2013-6-3,73,62,41,46,40,35,96,49,24,0.00,40.00,6,3,14,0.00
2013-6-4,79,60,42,50,43,37,96,62,23,0.00,40.00,3,1,9,0.00
2013-6-5,79,63,47,49,45,41,92,59,26,0.00,40.00,7,2,17,0.00
2013-6-6,80,59,47,50,45,32,89,65,18,0.00,40.00,2,1,7,0.00
2013-6-7,68,64,57,48,45,39,55,50,46,0.00,40.00,13,7,27,0.00
2013-6-8,74,63,53,43,38,31,61,41,20,0.00,40.00,9,5,18,0.00
2013-6-9,68,60,54,43,36,31,61,43,26,0.00,40.00,7,4,20,0.00
2013-6-10,73,55,40,41,37,28,88,56,20,0.00,40.00,5,2,14,0.00
2013-6-11,60,54,48,42,38,31,71,56,33,0.00,40.00,10,4,23,0.00
2013-6-12,63,51,41,37,35,32,85,57,32,0.00,40.00,7,3,17,0.00
2013-6-13,64,53,40,41,37,35,88,58,33,0.00,40.00,8,3,18,0.00
2013-6-14,67,59,44,42,40,38,85,50,34,0.00,40.00,5,3,14,0.00
2013-6-15,76,61,39,55,42,37,96,57,26,0.00,40.00,2,1,9,0.00
2013-6-16,82,65,48,51,46,35,92,55,20,0.00,40.00,3,2,13,0.00
2013-6-17,74,64,55,49,46,41,80,54,31,0.00,40.00,5,2,10,0.00
2013-6-18,68,58,51,53,47,39,100,72,34,0.00,40.00,2,1,9,0.00
2013-6-19,61,53,48,53,30,-100,100,71,45,0.00,40.00,6,2,16,0.00
2013-6-20,56,53,50,43,41,40,68,64,59,0.00,40.00,7,5,17,0.00
2013-6-22,76,64,45,53,49,44,96,61,33,0.00,40.00,2,1,8,0.00
2013-6-23,70,62,49,55,51,47,92,70,48,0.00,40.00,2,1,5,0.00
2013-6-24,58,55,51,58,55,51,100,99,96,0.00,40.00,1,0,5,0.00
2013-6-25,62,54,43,56,8,-100,100,65,72,0.00,40.00,2,1,6,0.00
2013-6-26,54,49,46,54,-78,-100,100,14,100,0.00,40.00,1,1,5,0.00
2013-6-27,63,58,50,61,-30,-100,100,39,77,0.00,40.00,1,0,3,0.00
2013-6-28,83,69,53,66,1,-100,93,38,45,0.00,40.00,2,1,8,0.00
2013-6-29,81,54,57,71,-74,-100,96,12,60,0.00,40.00,1,1,5,0.00
2013-6-30,-200,0,200,-100,-100,-100,0,0,100,0.00,40.00,3,1,12,0.00
2013-7-1,-200,0,200,-100,-100,-100,0,0,100,0.00,40.00,2,1,7,0.00
2013-7-2,-200,0,200,-100,-100,-100,0,0,100,0.00,40.00,7,3,18,0.00
2013-7-3,-200,0,200,-100,-100,-100,0,0,100,0.00,40.00,7,4,16,0.00
2013-7-4,77,34,61,44,-32,-100,53,17,24,0.00,40.00,9,6,24,0.00
2013-7-5,70,63,57,47,44,41,66,50,39,0.00,40.00,7,5,18,0.00
2013-7-6,82,66,47,53,49,42,100,59,24,0.00,40.00,3,1,9,0.00
2013-7-7,83,64,53,56,-21,-100,100,31,24,0.00,40.00,2,1,9,0.00
2013-7-8,63,53,49,-100,-100,-100,0,0,100,0.00,40.00,2,1,9,0.00
2013-7-9,87,72,53,59,13,-100,65,35,22,0.00,40.00,2,1,9,0.00
2013-7-10,82,66,55,58,50,39,100,61,23,0.00,40.00,9,3,18,0.00
2013-7-11,70,63,57,48,40,33,64,44,25,0.00,40.00,9,5,21,0.00
2013-7-12,66,59,53,42,39,37,58,48,34,0.00,40.00,6,3,14,0.00
2013-7-13,78,63,45,46,39,32,85,49,18,0.00,40.00,3,2,8,0.00
2013-7-14,82,68,45,49,37,26,100,42,14,0.00,40.00,6,3,17,0.00
2013-7-15,76,60,48,45,42,40,76,55,27,0.00,40.00,1,1,2,0.00
2013-7-16,85,66,47,54,45,33,89,53,16,0.00,40.00,2,1,6,0.00
2013-7-17,84,72,62,57,50,42,83,49,24,0.00,40.00,6,3,13,0.00
2013-7-18,87,71,50,53,46,39,96,49,18,0.00,40.00,6,2,14,0.00
2013-7-19,89,65,50,52,47,38,100,60,16,0.00,40.00,3,1,10,0.00
2013-7-20,67,60,53,53,52,52,100,76,58,0.00,40.00,1,1,2,0.00
2013-7-21,85,75,56,47,46,44,63,36,24,0.00,40.00,7,5,18,0.00
2013-7-22,85,78,63,54,48,44,60,36,23,0.00,40.00,6,3,16,0.00
2013-7-23,91,72,55,56,50,41,100,54,17,0.00,40.00,6,2,12,0.00
2013-7-24,90,69,55,54,49,36,96,56,14,0.00,40.00,6,2,13,0.00
2013-7-25,82,67,52,51,46,40,79,51,22,0.00,40.00,6,2,15,0.00
2013-7-26,85,66,52,47,42,36,79,47,17,0.00,40.00,5,2,13,0.00
2013-7-27,81,70,61,46,39,32,57,34,20,0.00,40.00,6,3,15,0.00
2013-7-28,80,71,53,49,41,36,66,37,20,0.00,40.00,6,3,14,0.00
2013-7-29,84,66,50,55,49,42,100,61,23,0.00,40.00,3,1,9,0.00
2013-7-30,83,67,56,54,52,45,86,60,26,0.00,40.00,2,1,6,0.00
2013-7-31,67,60,55,57,56,55,100,87,70,0.00,40.00,2,1,5,0.00
2013-8-1,76,66,50,55,20,-100,64,42,41,0.00,40.00,6,4,17,0.00
2013-8-2,69,61,55,55,31,-100,100,58,48,0.00,40.00,6,3,17,0.00
2013-8-3,80,65,50,58,36,-100,100,59,35,0.00,40.00,2,0,7,0.00
2013-8-4,82,67,52,65,20,-100,100,49,33,0.00,40.00,2,1,7,0.00
2013-8-5,87,68,52,61,-32,-100,100,18,21,0.00,40.00,6,2,14,0.00
2013-8-6,85,68,51,49,-4,-100,44,23,16,0.00,40.00,6,2,12,0.00
2013-8-7,88,67,52,48,44,40,82,49,19,0.00,40.00,6,2,14,0.00
2013-8-8,87,72,56,52,48,42,74,47,20,0.00,40.00,2,1,7,0.00
2013-8-9,92,75,56,57,-7,-100,57,20,19,0.00,40.00,2,1,12,0.00
2013-8-10,85,73,60,61,-10,-100,59,26,34,0.00,40.00,5,1,15,0.00
2013-8-11,61,58,56,-100,-100,-100,0,0,100,0.00,40.00,2,1,6,0.00
2013-8-12,78,63,50,59,-54,-100,61,16,52,0.00,40.00,3,1,8,0.00
2013-8-13,84,68,51,60,19,-100,100,43,23,0.00,40.00,2,1,9,0.00
2013-8-14,77,63,51,57,-45,-100,70,23,43,0.00,40.00,2,1,12,0.00
2013-8-15,75,68,63,62,45,-100,86,62,53,0.00,40.00,3,2,12,0.00
2013-8-16,82,64,51,61,-19,-100,89,27,31,0.00,40.00,3,1,12,0.00
2013-8-17,75,62,53,55,20,-100,100,45,34,0.00,40.00,7,3,17,0.00
2013-8-18,78,63,52,53,20,-100,86,49,27,0.00,40.00,8,2,15,0.00
2013-8-19,74,67,58,53,50,46,77,56,38,0.00,40.00,5,2,15,0.00
2013-8-20,78,72,64,49,42,38,58,36,23,0.00,40.00,7,4,18,0.00
2013-8-21,82,62,47,54,22,-100,83,48,27,0.00,40.00,1,0,3,0.00
2013-8-22,84,64,49,57,10,-100,92,41,23,0.00,40.00,3,1,7,0.00
2013-8-23,74,68,60,59,1,-100,65,34,42,0.00,40.00,6,3,13,0.00
2013-8-24,74,60,51,49,20,-100,62,39,36,0.00,40.00,6,3,14,0.00
2013-8-25,73,62,51,54,48,42,96,62,32,0.00,40.00,2,1,9,0.00
2013-8-26,73,64,51,56,-19,-100,72,28,42,0.00,40.00,3,1,12,0.00
2013-8-27,70,57,52,52,-87,-100,52,4,52,0.00,40.00,1,1,6,0.00
2013-8-28,75,66,60,60,-65,-100,70,13,49,0.00,40.00,3,1,7,0.00
2013-8-29,67,61,59,-100,-100,-100,0,0,100,0.00,40.00,2,1,7,0.00
2013-8-30,71,64,53,53,14,-100,86,42,40,0.00,40.00,7,4,17,0.00
2013-8-31,79,56,43,56,-29,-100,93,26,30,0.00,40.00,1,0,8,0.00
2013-9-1,85,70,47,58,2,-100,65,30,30,0.00,40.00,2,1,7,0.00
2013-9-2,86,67,53,61,6,-100,100,40,23,0.00,40.00,3,1,12,0.00
2013-9-3,78,65,58,60,26,-100,100,59,43,0.00,40.00,2,1,14,0.00
2013-9-4,84,68,55,58,4,-100,100,37,32,0.00,40.00,3,1,10,0.00
2013-9-5,79,65,58,68,-18,-100,96,41,56,0.00,40.00,2,1,7,0.00
2013-9-6,60,57,54,-100,-100,-100,0,0,100,0.00,40.00,3,1,9,0.00
2013-9-7,61,54,54,-100,-100,-100,0,0,100,0.00,40.00,1,0,3,0.00
2013-9-8,78,63,50,-100,-100,-100,0,0,100,0.00,40.00,5,2,13,0.00
2013-9-9,81,60,49,-100,-100,-100,0,0,100,0.00,40.00,5,1,9,0.00
2013-9-10,78,59,49,64,-80,-100,100,10,59,0.00,40.00,1,1,3,0.00
2013-9-11,86,61,49,62,-64,-100,75,13,43,0.00,40.00,1,1,3,0.00
2013-9-12,71,57,50,65,-68,-100,100,16,65,0.00,40.00,1,1,3,0.00
2013-9-13,82,62,53,64,-54,-100,96,17,45,0.00,40.00,2,1,6,0.00
2013-9-14,82,61,53,67,-48,-100,96,22,40,0.00,40.00,1,0,3,0.00
2013-9-15,81,67,55,65,-16,-100,78,30,33,0.00,40.00,3,0,9,0.00
2013-9-16,67,60,53,57,-18,-100,93,37,50,0.00,40.00,6,2,15,0.00
2013-9-17,64,53,46,51,-36,-100,92,29,55,0.00,40.00,6,1,18,0.00
2013-9-18,52,50,46,50,47,45,100,92,76,0.00,40.00,5,2,15,0.00
2013-9-19,66,50,36,48,-16,-100,100,38,34,0.00,40.00,2,1,9,0.00
2013-9-20,68,46,37,38,-75,-100,36,6,33,0.00,40.00,1,0,5,0.00
2013-9-21,65,53,50,47,-7,-100,89,34,30,0.00,40.00,5,2,14,0.00
2013-9-22,54,48,43,51,-56,-100,100,28,71,0.00,40.00,2,1,7,0.00
2013-9-23,53,46,43,-100,-100,-100,0,0,100,0.00,40.00,1,0,5,0.00
2013-9-24,57,46,41,46,-58,-100,100,23,47,0.00,40.00,6,1,13,0.00
2013-9-25,59,49,37,46,-13,-100,100,40,40,0.00,40.00,5,1,13,0.00
2013-9-26,56,45,39,51,-78,-100,100,11,46,0.00,40.00,1,0,5,0.00
2013-9-27,49,44,38,47,-91,-100,92,5,92,0.00,40.00,3,1,9,0.00
2013-9-28,47,42,43,-100,-100,-100,0,0,100,0.00,40.00,2,1,5,0.00
2013-9-29,49,44,39,-100,-100,-100,0,0,100,0.00,40.00,2,0,8,0.00
2013-9-30,44,39,33,-100,-100,-100,0,0,100,0.00,40.00,2,1,12,0.00
2013-10-1,47,41,37,32,-83,-100,72,9,72,0.00,40.00,1,1,6,0.00
2013-10-2,46,40,36,-100,-100,-100,0,0,100,0.00,40.00,1,0,3,0.00
2013-10-12,51,40,38,35,-82,-100,56,7,54,0.00,40.00,1,0,3,0.00
2013-10-13,51,40,32,45,-90,-100,82,6,82,0.00,40.00,1,0,3,0.00
2013-10-14,50,36,30,44,-88,-100,82,7,82,0.00,40.00,1,1,3,0.00
2013-10-15,55,42,30,46,-77,-100,71,9,38,0.00,40.00,1,0,3,0.00
2013-10-16,58,43,37,48,-70,-100,100,15,38,0.00,40.00,1,0,6,0.00
2013-10-17,50,38,31,46,-90,-100,86,6,86,0.00,40.00,1,0,2,0.00
2013-10-18,56,39,31,49,-79,-100,96,11,63,0.00,40.00,1,0,3,0.00
2013-10-21,43,36,33,-100,-100,-100,0,0,100,0.00,40.00,1,1,2,0.00
2013-10-22,60,42,33,53,-78,-100,100,12,62,0.00,40.00,1,0,2,0.00
2013-10-23,59,42,33,49,-88,-100,69,6,69,0.00,40.00,2,0,6,0.00
2013-10-24,51,40,32,-100,-100,-100,0,0,100,0.00,40.00,1,0,2,0.00
2013-10-25,58,39,32,47,-89,-100,66,5,66,0.00,40.00,1,0,2,0.00
2013-10-26,49,36,33,-100,-100,-100,0,0,100,0.00,40.00,2,0,6,0.00
2013-10-27,51,43,37,47,-46,-100,100,29,51,0.00,40.00,2,1,10,0.00
2013-10-28,43,38,31,34,-2,-100,96,59,67,0.00,40.00,1,0,3,0.00
2013-10-29,42,30,25,36,-35,-100,100,47,46,0.00,40.00,2,0,3,0.00
2013-10-30,53,30,26,-100,-100,-100,0,0,100,0.00,40.00,7,1,17,0.00
2013-10-31,53,47,41,41,22,-100,85,56,43,0.00,40.00,6,3,15,0.00
2013-11-1,54,42,33,48,-6,-100,100,59,77,0.00,40.00,2,0,5,0.00
2013-11-2,41,41,41,-100,-100,-100,0,0,100,0.00,40.00,1,0,2,0.00
2013-11-4,34,28,24,34,-78,-100,100,17,100,0.00,40.00,1,0,3,0.00
2013-11-5,37,32,30,-100,-100,-100,0,0,100,0.00,40.00,1,0,6,0.00
2013-11-6,35,32,30,-100,-100,-100,0,0,100,0.00,40.00,2,1,7,0.00
2013-11-7,34,32,32,-100,-100,-100,0,0,100,0.00,40.00,1,0,3,0.00
2013-11-8,38,33,29,-100,-100,-100,0,0,100,0.00,40.00,2,0,9,0.00
2013-11-9,35,29,27,-100,-100,-100,0,0,100,0.00,40.00,1,0,3,0.00
2013-11-10,32,32,32,-100,-100,-100,0,0,100,0.00,40.00,0,0,1,0.00
2013-11-11,41,39,37,-100,-100,-100,0,0,100,0.00,40.00,1,0,3,0.00
2013-11-12,44,40,39,-100,-100,-100,0,0,100,0.00,40.00,1,0,5,0.00
2013-11-13,49,41,34,-100,-100,-100,0,0,100,0.00,40.00,6,1,21,0.00
2013-11-14,47,36,33,40,-85,-100,100,9,55,0.00,40.00,5,1,13,0.00
2013-11-15,42,36,33,35,-56,-100,96,25,42,0.00,40.00,7,2,21,0.00
2013-11-16,33,32,32,-100,-100,-100,0,0,100,0.00,40.00,1,1,3,0.00
2013-11-17,34,32,29,-100,-100,-100,0,0,100,0.00,40.00,2,1,6,0.00
2013-11-18,42,38,34,-100,-100,-100,0,0,100,0.00,40.00,2,1,6,0.00
2013-11-19,42,38,34,-100,-100,-100,0,0,100,0.00,40.00,12,4,25,0.00
2013-11-20,30,26,21,24,20,14,100,78,50,0.00,40.00,1,0,2,0.00
2013-11-21,26,20,15,19,-50,-100,100,34,57,0.00,40.00,1,0,2,0.00
2013-11-22,30,21,16,24,8,-100,100,77,46,0.00,40.00,1,0,2,0.00
2013-11-23,31,19,15,23,2,-100,100,76,46,0.00,40.00,1,0,5,0.00
2013-11-24,21,21,21,18,18,18,87,87,87,0.00,40.00,1,1,2,0.00
2013-11-25,33,25,20,25,-7,-100,100,68,69,0.00,40.00,0,0,2,0.00
2013-11-26,34,26,21,28,-16,-100,100,62,69,0.00,40.00,1,0,2,0.00
2013-11-27,37,29,25,28,-41,-100,100,39,51,0.00,40.00,1,0,2,0.00
2013-11-28,35,26,20,34,-81,-100,100,14,96,0.00,40.00,1,0,2,0.00
2013-11-29,33,28,22,32,-84,-100,100,12,100,0.00,40.00,5,1,12,0.00
2013-11-30,38,29,27,-100,-100,-100,0,0,100,0.00,40.00,5,2,12,0.00
2013-12-1,32,26,31,-100,-100,-100,0,0,100,0.00,40.00,2,1,6,0.00
2013-12-2,32,29,26,-100,-100,-100,0,0,100,0.00,40.00,5,1,13,0.00
2013-12-3,26,21,13,-100,-100,-100,0,0,100,0.00,40.00,1,0,3,0.00
2013-12-4,21,14,8,10,-83,-100,100,15,100,0.00,40.00,0,0,1,0.00
2013-12-5,16,13,8,8,-93,-100,100,7,100,0.00,40.00,1,0,3,0.00
2013-12-6,16,12,10,-100,-100,-100,0,0,100,0.00,40.00,1,0,6,0.00
2013-12-7,7,4,2,7,-18,-100,100,74,86,0.00,40.00,0,0,0,0.00
2013-12-8,14,6,-2,10,-32,-100,100,60,74,0.00,40.00,3,0,6,0.00
2013-12-9,11,4,3,4,3,1,95,94,91,0.00,40.00,1,0,3,0.00
2013-12-10,21,16,11,-100,-100,-100,0,0,100,0.00,40.00,5,1,10,0.00
2013-12-11,25,20,16,24,-84,-100,100,12,91,0.00,40.00,3,0,6,0.00
2013-12-12,27,22,17,-100,-100,-100,0,0,100,0.00,40.00,1,0,3,0.00
2013-12-13,33,28,22,-100,-100,-100,0,0,100,0.00,40.00,1,0,2,0.00
2013-12-14,29,29,29,-100,-100,-100,0,0,100,0.00,40.00,0,0,1,0.00
2013-12-15,47,40,30,35,-7,-100,76,42,45,0.00,40.00,7,4,22,0.00
2013-12-16,44,35,28,32,2,-100,100,61,52,0.00,40.00,6,2,17,0.00
2013-12-17,28,28,28,-100,-100,-100,0,0,100,0.00,40.00,0,0,1,0.00
2013-12-18,28,27,26,20,19,17,77,69,62,0.00,40.00,1,0,1,0.00
2013-12-19,27,24,20,24,18,13,100,79,55,0.00,40.00,1,0,5,0.00
2013-12-20,26,23,22,18,16,11,80,74,57,0.00,40.00,3,1,10,0.00
2013-12-21,29,23,19,-100,-100,-100,0,0,100,0.00,40.00,5,1,10,0.00
2013-12-22,31,26,22,-100,-100,-100,0,0,100,0.00,40.00,3,2,10,0.00
2013-12-23,37,31,27,-100,-100,-100,0,0,100,0.00,40.00,3,2,13,0.00
2013-12-24,39,29,24,28,-92,-100,95,6,95,0.00,40.00,5,1,14,0.00
2013-12-25,23,21,20,-100,-100,-100,0,0,100,0.00,40.00,0,0,1,0.00
2013-12-26,23,22,22,-100,-100,-100,0,0,100,0.00,40.00,0,0,1,0.00
2013-12-27,36,31,27,-100,-100,-100,0,0,100,0.00,40.00,3,1,16,0.00
2013-12-28,35,26,24,-100,-100,-100,0,0,100,0.00,40.00,1,0,3,0.00
2013-12-29,37,28,24,32,-67,-100,81,20,81,0.00,40.00,1,0,3,0.00
2014-1-2,29,29,29,-100,-100,-100,0,0,100,0.00,40.00,0,0,3,0.00